Time;durP1;ratioP1;P1;durP2;ratioP2;P2;SDS_P1;SDS_P2;PMS_P1;PMS_P2;Temp;Humidity;BMP_temperature;BMP_pressure;BME280_temperature;BME280_humidity;BME280_pressure;Samples;Min_cycle;Max_cycle;Signal;HPM_P1;HPM_P2
2021/06/04 00:00:45;;;;;;;;;;;;;;;20.62;100.00;99415.31;5059809;28;20397;-63
2021/06/04 00:03:16;;;;;;;;;;;;;;;20.93;100.00;99416.69;5034820;28;19913;-63
2021/06/04 00:05:43;;;;;;;;;;;;;;;21.03;100.00;99424.75;5057594;28;20035;-63
2021/06/04 00:08:09;;;;;;;;;;;;;;;20.80;100.00;99408.84;5058781;28;19986;-63
2021/06/04 00:10:38;;;;;;;;;;;;;;;21.08;100.00;99412.19;5053006;28;19923;-63
2021/06/04 00:13:30;;;;;;;;;;;;;;;20.94;100.00;99410.50;5052970;28;20366;-63
2021/06/04 00:16:05;;;;;;;;;;;;;;;20.84;100.00;99404.22;5050235;28;19943;-63
2021/06/04 00:18:30;;;;;;;;;;;;;;;20.96;100.00;99402.53;5059072;28;20003;-63
2021/06/04 00:20:56;;;;;;;;;;;;;;;20.72;100.00;99400.66;5033665;28;20456;-63
2021/06/04 00:23:22;;;;;;;;;;;;;;;20.65;100.00;99394.16;5057691;28;19920;-63
2021/06/04 00:25:47;;;;;;;;;;;;;;;20.81;100.00;99400.03;5039375;28;20011;-63
2021/06/04 00:28:12;;;;;;;;;;;;;;;20.77;100.00;99401.16;5051994;28;19920;-63
2021/06/04 00:30:38;;;;;;;;;;;;;;;20.43;100.00;99406.00;5055086;28;19935;-63
2021/06/04 00:33:04;;;;;;;;;;;;;;;20.91;100.00;99402.84;5052868;28;19925;-63
2021/06/04 00:35:29;;;;;;;;;;;;;;;21.17;100.00;99401.06;5035055;28;19916;-63
2021/06/04 00:37:55;;;;;;;;;;;;;;;21.26;100.00;99395.19;5037037;28;20003;-63
2021/06/04 00:40:22;;;;;;;;;;;;;;;21.19;100.00;99398.31;5053672;28;19923;-63
2021/06/04 00:42:47;;;;;;;;;;;;;;;21.29;100.00;99404.59;5056002;28;20425;-63
2021/06/04 00:45:16;;;;;;;;;;;;;;;21.32;100.00;99404.38;5033476;28;19959;-63
2021/06/04 00:47:42;;;;;;;;;;;;;;;21.25;100.00;99403.97;5056273;28;19923;-63
2021/06/04 00:50:08;;;;;;;;;;;;;;;20.95;100.00;99403.50;5054455;28;19916;-63
2021/06/04 00:52:35;;;;;;;;;;;;;;;21.21;100.00;99402.53;5057555;28;19912;-63
2021/06/04 00:55:00;;;;;;;;;;;;;;;21.18;100.00;99404.53;5038494;28;20549;-63
2021/06/04 00:57:26;;;;;;;;;;;;;;;21.12;100.00;99408.41;5036481;28;19955;-63
2021/06/04 01:00:00;;;;;;;;;;;;;;;21.14;100.00;99401.25;5035249;28;20015;-63
2021/06/04 01:02:26;;;;;;;;;;;;;;;21.13;100.00;99410.06;5035398;28;20251;-63
2021/06/04 01:04:51;;;;;;;;;;;;;;;21.12;100.00;99408.41;5033692;28;19920;-63
2021/06/04 01:07:21;;;;;;;;;;;;;;;20.59;100.00;99405.88;5034904;28;19920;-63
2021/06/04 01:09:46;;;;;;;;;;;;;;;20.86;100.00;99408.41;5033146;28;19940;-63
2021/06/04 01:12:18;;;;;;;;;;;;;;;20.71;100.00;99401.59;5035178;28;19921;-63
2021/06/04 01:14:59;;;;;;;;;;;;;;;20.99;100.00;99407.59;5033464;28;20525;-63
2021/06/04 01:17:51;;;;;;;;;;;;;;;20.12;100.00;99407.22;5034111;28;21096;-63
2021/06/04 01:20:16;;;;;;;;;;;;;;;20.05;100.00;99411.16;5019228;28;20301;-63
2021/06/04 01:22:51;;;;;;;;;;;;;;;19.84;100.00;99408.13;5036337;28;19923;-63
2021/06/04 01:25:20;;;;;;;;;;;;;;;20.54;100.00;99417.56;5035432;28;19921;-63
2021/06/04 01:27:45;;;;;;;;;;;;;;;20.71;100.00;99412.09;5033985;28;19995;-62
2021/06/04 01:30:28;;;;;;;;;;;;;;;20.49;100.00;99410.00;5035312;28;20448;-63
2021/06/04 01:33:14;;;;;;;;;;;;;;;20.26;100.00;99414.97;5033418;28;19917;-63
2021/06/04 01:35:43;;;;;;;;;;;;;;;20.41;100.00;99413.16;5034837;28;19921;-63
2021/06/04 01:38:09;;;;;;;;;;;;;;;20.60;100.00;99414.56;5033464;28;19920;-63
2021/06/04 01:40:36;;;;;;;;;;;;;;;20.08;100.00;99410.97;5035519;28;19913;-63
2021/06/04 01:43:03;;;;;;;;;;;;;;;19.93;100.00;99418.00;5034013;28;20056;-63
2021/06/04 01:45:30;;;;;;;;;;;;;;;19.73;100.00;99413.19;5014663;28;19913;-63
2021/06/04 01:48:02;;;;;;;;;;;;;;;20.24;100.00;99424.69;5037617;28;20323;-63
2021/06/04 01:50:31;;;;;;;;;;;;;;;20.41;100.00;99418.38;5033879;28;19917;-63
2021/06/04 01:52:57;;;;;;;;;;;;;;;20.03;100.00;99419.09;5033320;28;20398;-63
2021/06/04 01:55:26;;;;;;;;;;;;;;;19.93;100.00;99423.22;5032250;28;19936;-63
2021/06/04 01:58:00;;;;;;;;;;;;;;;19.77;100.00;99428.59;5038060;28;19944;-63
2021/06/04 02:00:27;;;;;;;;;;;;;;;19.99;100.00;99416.78;5036554;28;19916;-63
2021/06/04 02:02:53;;;;;;;;;;;;;;;20.18;100.00;99416.41;5034958;28;20293;-62
2021/06/04 02:05:20;;;;;;;;;;;;;;;19.94;100.00;99424.91;5055095;28;19928;-63
2021/06/04 02:07:45;;;;;;;;;;;;;;;19.53;100.00;99423.09;5035302;28;20415;-63
2021/06/04 02:10:16;;;;;;;;;;;;;;;19.94;100.00;99417.06;5055124;28;19971;-63
2021/06/04 02:12:41;;;;;;;;;;;;;;;20.07;100.00;99419.75;5037956;28;19917;-63
2021/06/04 02:15:14;;;;;;;;;;;;;;;19.62;100.00;99419.91;5034518;28;20297;-63
2021/06/04 02:18:06;;;;;;;;;;;;;;;19.69;100.00;99419.56;5035539;28;19913;-63
2021/06/04 02:20:32;;;;;;;;;;;;;;;19.32;100.00;99421.84;5017783;28;20016;-63
2021/06/04 02:22:58;;;;;;;;;;;;;;;19.26;100.00;99417.81;5054426;28;19999;-63
2021/06/04 02:25:23;;;;;;;;;;;;;;;19.47;100.00;99418.25;5056197;28;19958;-63
2021/06/04 02:27:50;;;;;;;;;;;;;;;19.21;100.00;99420.69;5037879;28;19917;-63
2021/06/04 02:30:18;;;;;;;;;;;;;;;19.33;100.00;99423.50;5037823;28;19928;-63
2021/06/04 02:32:47;;;;;;;;;;;;;;;19.28;100.00;99426.41;5054199;28;19916;-63
2021/06/04 02:35:15;;;;;;;;;;;;;;;19.64;100.00;99428.50;5033852;28;19917;-63
2021/06/04 02:37:42;;;;;;;;;;;;;;;19.48;100.00;99433.00;5056677;28;19999;-63
2021/06/04 02:40:08;;;;;;;;;;;;;;;19.07;100.00;99423.31;5034983;28;20399;-63
2021/06/04 02:42:40;;;;;;;;;;;;;;;19.26;100.00;99424.81;5034453;28;19916;-63
2021/06/04 02:45:16;;;;;;;;;;;;;;;19.50;100.00;99422.44;5021370;28;19913;-64
2021/06/04 02:47:43;;;;;;;;;;;;;;;19.37;100.00;99419.78;5035874;28;20310;-63
2021/06/04 02:50:31;;;;;;;;;;;;;;;19.69;100.00;99424.81;5034203;28;19913;-63
2021/06/04 02:53:11;;;;;;;;;;;;;;;20.01;100.00;99426.19;5048318;28;19913;-63
2021/06/04 02:55:37;;;;;;;;;;;;;;;20.14;100.00;99426.25;5038902;28;20289;-63
2021/06/04 02:58:02;;;;;;;;;;;;;;;20.25;100.00;99430.75;5040195;28;19932;-63
2021/06/04 03:00:35;;;;;;;;;;;;;;;19.90;100.00;99426.03;5059155;28;19916;-63
2021/06/04 03:03:00;;;;;;;;;;;;;;;19.67;100.00;99427.47;5060023;28;19920;-63
2021/06/04 03:05:28;;;;;;;;;;;;;;;19.40;100.00;99422.19;5056974;28;19916;-63
2021/06/04 03:07:53;;;;;;;;;;;;;;;19.21;100.00;99431.16;5059862;28;20399;-63
2021/06/04 03:10:22;;;;;;;;;;;;;;;19.15;100.00;99434.13;5058560;28;19913;-62
2021/06/04 03:12:47;;;;;;;;;;;;;;;19.67;100.00;99429.25;5055337;28;20938;-63
2021/06/04 03:15:31;;;;;;;;;;;;;;;19.20;100.00;99437.31;5058505;28;19924;-63
2021/06/04 03:17:56;;;;;;;;;;;;;;;19.59;100.00;99433.19;5050946;28;19921;-63
2021/06/04 03:20:26;;;;;;;;;;;;;;;19.76;100.00;99433.94;5056344;28;19919;-63
2021/06/04 03:22:51;;;;;;;;;;;;;;;19.82;100.00;99436.16;5057456;28;20058;-63
2021/06/04 03:25:25;;;;;;;;;;;;;;;19.83;100.00;99443.06;5055778;28;20016;-63
2021/06/04 03:27:51;;;;;;;;;;;;;;;19.82;100.00;99433.56;5035490;28;19921;-63
2021/06/04 03:30:19;;;;;;;;;;;;;;;19.89;100.00;99440.06;5058722;28;19913;-63
2021/06/04 03:32:44;;;;;;;;;;;;;;;19.92;100.00;99442.47;5040835;28;19920;-63
2021/06/04 03:35:10;;;;;;;;;;;;;;;19.99;100.00;99448.97;5056630;28;19966;-63
2021/06/04 03:37:36;;;;;;;;;;;;;;;20.11;100.00;99446.53;5057526;28;19912;-63
2021/06/04 03:40:03;;;;;;;;;;;;;;;19.96;100.00;99449.19;5042111;28;19912;-63
2021/06/04 03:42:29;;;;;;;;;;;;;;;20.11;100.00;99456.97;5058595;28;19917;-63
2021/06/04 03:44:55;;;;;;;;;;;;;;;20.02;100.00;99454.00;5059157;28;19920;-63
2021/06/04 03:47:21;;;;;;;;;;;;;;;20.05;100.00;99453.81;5039794;28;19916;-63
2021/06/04 03:49:46;;;;;;;;;;;;;;;20.20;100.00;99465.06;5055999;28;20046;-63
2021/06/04 03:52:14;;;;;;;;;;;;;;;20.02;100.00;99456.63;5057250;28;20405;-63
2021/06/04 03:54:44;;;;;;;;;;;;;;;20.25;100.00;99470.00;5036813;28;19920;-63
2021/06/04 03:57:10;;;;;;;;;;;;;;;20.21;100.00;99463.31;5039699;28;20015;-63
2021/06/04 03:59:36;;;;;;;;;;;;;;;20.18;100.00;99468.72;5055055;28;20337;-63
2021/06/04 04:02:03;;;;;;;;;;;;;;;20.15;100.00;99475.00;5057102;28;19950;-63
2021/06/04 04:04:29;;;;;;;;;;;;;;;19.89;100.00;99468.81;5038720;28;19958;-63
2021/06/04 04:06:55;;;;;;;;;;;;;;;20.20;100.00;99472.06;5058099;28;19917;-63
2021/06/04 04:09:20;;;;;;;;;;;;;;;20.26;100.00;99471.69;5057374;28;19913;-63
2021/06/04 04:11:46;;;;;;;;;;;;;;;20.23;100.00;99471.88;5057858;28;19970;-63
2021/06/04 04:14:12;;;;;;;;;;;;;;;20.26;100.00;99471.69;5036700;28;19913;-63
2021/06/04 04:16:37;;;;;;;;;;;;;;;20.11;100.00;99477.91;5054562;28;19913;-63
2021/06/04 04:19:02;;;;;;;;;;;;;;;20.12;100.00;99474.38;5054592;28;19919;-63
2021/06/04 04:21:28;;;;;;;;;;;;;;;20.22;100.00;99470.22;5055889;28;19913;-63
2021/06/04 04:23:56;;;;;;;;;;;;;;;20.09;100.00;99469.31;5054752;28;20020;-63
2021/06/04 04:26:23;;;;;;;;;;;;;;;20.11;100.00;99472.66;5059303;28;19919;-63
2021/06/04 04:28:49;;;;;;;;;;;;;;;20.24;100.00;99474.41;5036391;28;19912;-63
2021/06/04 04:31:16;;;;;;;;;;;;;;;20.45;100.00;99477.38;5058012;28;20283;-63
2021/06/04 04:33:41;;;;;;;;;;;;;;;20.53;100.00;99479.53;5058835;28;19917;-63
2021/06/04 04:36:07;;;;;;;;;;;;;;;20.40;100.00;99479.47;5053574;28;19939;-63
2021/06/04 04:38:33;;;;;;;;;;;;;;;20.50;100.00;99487.56;5058556;28;19917;-63
2021/06/04 04:41:01;;;;;;;;;;;;;;;20.57;100.00;99485.41;5054507;28;19928;-63
2021/06/04 04:43:28;;;;;;;;;;;;;;;20.59;100.00;99483.53;5035215;28;20637;-63
2021/06/04 04:45:54;;;;;;;;;;;;;;;20.58;100.00;99487.09;5057905;28;19995;-63
2021/06/04 04:48:19;;;;;;;;;;;;;;;20.46;100.00;99493.94;5055270;28;20007;-62
2021/06/04 04:50:44;;;;;;;;;;;;;;;20.59;100.00;99488.78;5058624;28;19921;-62
2021/06/04 04:53:10;;;;;;;;;;;;;;;20.71;100.00;99493.22;5055078;28;20267;-62
2021/06/04 04:55:36;;;;;;;;;;;;;;;20.72;100.00;99500.13;5056834;28;19917;-62
2021/06/04 04:58:02;;;;;;;;;;;;;;;20.66;100.00;99490.91;5056460;28;19978;-62
2021/06/04 05:00:28;;;;;;;;;;;;;;;20.43;100.00;99491.50;5035446;28;19944;-62
2021/06/04 05:02:53;;;;;;;;;;;;;;;20.79;100.00;99490.91;5055834;28;20015;-62
2021/06/04 05:05:19;;;;;;;;;;;;;;;20.80;100.00;99490.00;5055012;28;20016;-62
2021/06/04 05:07:45;;;;;;;;;;;;;;;20.72;100.00;99481.78;5055330;28;19917;-62
2021/06/04 05:10:11;;;;;;;;;;;;;;;20.84;100.00;99483.59;5054152;28;19916;-62
2021/06/04 05:12:36;;;;;;;;;;;;;;;20.95;100.00;99485.50;5058775;28;19943;-62
2021/06/04 05:15:05;;;;;;;;;;;;;;;20.87;100.00;99483.41;5032815;28;19916;-62
2021/06/04 05:17:31;;;;;;;;;;;;;;;20.83;100.00;99487.16;5055464;28;20290;-62
2021/06/04 05:19:57;;;;;;;;;;;;;;;20.84;100.00;99486.19;5055964;28;19924;-62
2021/06/04 05:22:23;;;;;;;;;;;;;;;20.71;100.00;99480.13;5055941;28;20377;-62
2021/06/04 05:24:48;;;;;;;;;;;;;;;20.87;100.00;99483.41;5055172;28;19952;-62
2021/06/04 05:27:13;;;;;;;;;;;;;;;21.08;100.00;99477.66;5053413;28;19973;-62
2021/06/04 05:29:39;;;;;;;;;;;;;;;21.16;100.00;99482.34;5055387;28;19998;-62
2021/06/04 05:32:05;;;;;;;;;;;;;;;21.33;100.00;99479.44;5054487;28;20295;-62
2021/06/04 05:34:31;;;;;;;;;;;;;;;21.47;100.00;99486.38;5054525;28;19917;-62
2021/06/04 05:36:57;;;;;;;;;;;;;;;21.33;100.00;99494.31;5052262;28;19917;-62
2021/06/04 05:39:22;;;;;;;;;;;;;;;20.54;100.00;99501.28;5055805;28;19917;-62
2021/06/04 05:41:49;;;;;;;;;;;;;;;20.59;100.00;99504.47;5038255;28;19912;-62
2021/06/04 05:44:18;;;;;;;;;;;;;;;20.42;100.00;99501.16;5035918;28;20379;-62
2021/06/04 05:46:43;;;;;;;;;;;;;;;20.89;100.00;99512.06;5052940;28;20309;-62
2021/06/04 05:49:09;;;;;;;;;;;;;;;20.77;100.00;99507.66;5054317;28;19970;-62
2021/06/04 05:51:35;;;;;;;;;;;;;;;21.28;100.00;99502.50;5055308;28;20411;-62
2021/06/04 05:54:00;;;;;;;;;;;;;;;21.61;100.00;99507.22;5019633;28;19917;-62
2021/06/04 05:56:27;;;;;;;;;;;;;;;21.76;100.00;99509.69;5055646;28;20434;-62
2021/06/04 05:58:53;;;;;;;;;;;;;;;21.64;100.00;99508.78;5054388;28;19924;-62
2021/06/04 06:01:19;;;;;;;;;;;;;;;21.61;100.00;99514.25;5037398;28;19970;-64
2021/06/04 06:03:45;;;;;;;;;;;;;;;21.68;100.00;99515.47;5035203;28;19920;-62
2021/06/04 06:06:12;;;;;;;;;;;;;;;21.78;100.00;99526.16;5053778;28;19921;-62
2021/06/04 06:08:37;;;;;;;;;;;;;;;21.83;100.00;99524.91;5053208;28;19916;-62
2021/06/04 06:11:03;;;;;;;;;;;;;;;22.11;100.00;99518.53;5054742;28;20335;-62
2021/06/04 06:13:28;;;;;;;;;;;;;;;22.17;100.00;99521.66;5051278;28;19916;-62
2021/06/04 06:15:54;;;;;;;;;;;;;;;22.10;100.00;99521.25;5053523;28;19996;-62
2021/06/04 06:18:20;;;;;;;;;;;;;;;22.43;100.00;99511.94;5053230;28;19925;-62
2021/06/04 06:20:46;;;;;;;;;;;;;;;22.60;100.00;99519.41;5052268;28;20501;-62
2021/06/04 06:23:12;;;;;;;;;;;;;;;22.45;100.00;99526.63;5055580;28;20019;-62
2021/06/04 06:25:39;;;;;;;;;;;;;;;22.66;100.00;99520.75;5035981;28;20409;-62
2021/06/04 06:28:05;;;;;;;;;;;;;;;21.80;100.00;99530.34;5058846;28;19930;-62
2021/06/04 06:30:31;;;;;;;;;;;;;;;21.40;100.00;99522.63;5056919;28;19968;-62
2021/06/04 06:32:57;;;;;;;;;;;;;;;21.12;100.00;99528.88;5059112;28;19968;-62
2021/06/04 06:35:27;;;;;;;;;;;;;;;22.19;100.00;99530.25;5055928;28;19924;-62
2021/06/04 06:37:52;;;;;;;;;;;;;;;21.96;100.00;99529.28;5059147;28;19920;-62
2021/06/04 06:40:18;;;;;;;;;;;;;;;22.09;100.00;99530.09;5057429;28;19979;-62
2021/06/04 06:42:43;;;;;;;;;;;;;;;21.80;100.00;99530.34;5060468;28;20325;-62
2021/06/04 06:45:09;;;;;;;;;;;;;;;22.55;100.00;99540.72;5055169;28;19914;-62
2021/06/04 06:47:35;;;;;;;;;;;;;;;22.52;100.00;99543.59;5022534;28;19924;-62
2021/06/04 06:50:01;;;;;;;;;;;;;;;22.00;100.00;99531.56;5056336;28;19924;-62
2021/06/04 06:52:26;;;;;;;;;;;;;;;21.57;100.00;99533.75;5055624;28;19931;-62
2021/06/04 06:54:52;;;;;;;;;;;;;;;21.64;100.00;99540.22;5054685;28;20394;-62
2021/06/04 06:57:17;;;;;;;;;;;;;;;21.44;100.00;99531.97;5056697;28;20481;-62
2021/06/04 06:59:42;;;;;;;;;;;;;;;21.50;100.00;99533.31;5054259;28;19921;-62
2021/06/04 07:02:08;;;;;;;;;;;;;;;22.38;100.00;99538.53;5056916;28;19940;-63
2021/06/04 07:04:34;;;;;;;;;;;;;;;21.81;100.00;99537.28;5057046;28;20003;-63
2021/06/04 07:06:59;;;;;;;;;;;;;;;22.36;100.00;99543.03;5059177;28;19921;-63
2021/06/04 07:09:25;;;;;;;;;;;;;;;22.22;100.00;99540.59;5036001;28;19924;-63
2021/06/04 07:11:53;;;;;;;;;;;;;;;21.87;100.00;99543.88;5021759;28;19925;-63
2021/06/04 07:14:20;;;;;;;;;;;;;;;21.80;100.00;99547.88;5036351;28;19921;-63
2021/06/04 07:16:45;;;;;;;;;;;;;;;21.57;100.00;99537.19;5054539;28;19916;-63
2021/06/04 07:19:10;;;;;;;;;;;;;;;21.59;100.00;99543.16;5055462;28;19920;-63
2021/06/04 07:21:38;;;;;;;;;;;;;;;21.46;100.00;99544.94;5054528;28;20298;-63
2021/06/04 07:24:03;;;;;;;;;;;;;;;21.34;100.00;99556.25;5054630;28;19956;-63
2021/06/04 07:26:29;;;;;;;;;;;;;;;21.11;100.00;99553.38;5055779;28;19955;-63
2021/06/04 07:29:00;;;;;;;;;;;;;;;21.41;100.00;99560.16;5057117;28;20366;-63
2021/06/04 07:31:26;;;;;;;;;;;;;;;22.91;100.00;99560.00;5055782;28;19924;-63
2021/06/04 07:33:52;;;;;;;;;;;;;;;22.37;100.00;99559.63;5060839;28;19971;-63
2021/06/04 07:36:19;;;;;;;;;;;;;;;21.58;100.00;99557.22;5033491;28;19931;-63
2021/06/04 07:38:46;;;;;;;;;;;;;;;21.56;100.00;99564.34;5050089;28;19962;-63
2021/06/04 07:41:11;;;;;;;;;;;;;;;21.59;100.00;99563.31;5031293;28;19924;-63
2021/06/04 07:43:39;;;;;;;;;;;;;;;22.52;100.00;99558.50;5053456;28;19916;-63
2021/06/04 07:46:05;;;;;;;;;;;;;;;23.44;100.00;99556.09;5055253;28;19920;-63
2021/06/04 07:48:31;;;;;;;;;;;;;;;21.98;100.00;99559.69;5053430;28;19932;-64
2021/06/04 07:50:56;;;;;;;;;;;;;;;21.65;100.00;99552.41;5051662;28;20733;-63
2021/06/04 07:53:24;;;;;;;;;;;;;;;21.68;100.00;99557.44;5049944;28;20753;-64
2021/06/04 07:55:49;;;;;;;;;;;;;;;22.27;100.00;99552.41;5051817;28;19920;-63
2021/06/04 07:58:15;;;;;;;;;;;;;;;24.12;100.00;99556.97;5033919;28;20339;-63
2021/06/04 08:00:40;;;;;;;;;;;;;;;22.66;100.00;99565.38;5051442;28;20683;-64
2021/06/04 08:03:06;;;;;;;;;;;;;;;22.01;100.00;99569.13;5056667;28;19973;-64
2021/06/04 08:05:32;;;;;;;;;;;;;;;22.50;100.00;99568.28;5051726;28;20669;-64
2021/06/04 08:07:57;;;;;;;;;;;;;;;22.64;100.00;99567.28;5056957;28;19924;-64
2021/06/04 08:10:23;;;;;;;;;;;;;;;22.23;100.00;99568.47;5053723;28;19916;-64
2021/06/04 08:12:48;;;;;;;;;;;;;;;22.18;100.00;99567.94;5030478;28;19928;-64
2021/06/04 08:15:16;;;;;;;;;;;;;;;23.25;100.00;99565.38;5049248;28;19924;-64
2021/06/04 08:17:42;;;;;;;;;;;;;;;25.01;100.00;99563.75;5032509;28;19925;-64
2021/06/04 08:20:08;;;;;;;;;;;;;;;23.92;100.00;99561.16;5052960;28;20152;-64
2021/06/04 08:22:41;;;;;;;;;;;;;;;24.28;100.00;99567.94;5042600;28;19920;-66
2021/06/04 08:25:06;;;;;;;;;;;;;;;23.43;100.00;99575.47;5053701;28;20487;-64
2021/06/04 08:27:32;;;;;;;;;;;;;;;23.00;100.00;99574.25;5054067;28;19928;-64
2021/06/04 08:29:57;;;;;;;;;;;;;;;22.36;100.00;99571.91;5051610;28;19963;-64
2021/06/04 08:32:22;;;;;;;;;;;;;;;23.25;100.00;99573.25;5049126;28;20115;-64
2021/06/04 08:34:48;;;;;;;;;;;;;;;24.07;100.00;99567.84;5060778;28;19931;-64
2021/06/04 08:37:13;;;;;;;;;;;;;;;24.44;100.00;99570.16;5049524;28;19973;-64
2021/06/04 08:39:41;;;;;;;;;;;;;;;25.71;100.00;99566.69;5047698;28;19916;-64
2021/06/04 08:42:09;;;;;;;;;;;;;;;25.32;100.00;99574.41;5055216;28;19916;-64
2021/06/04 08:44:35;;;;;;;;;;;;;;;24.69;100.00;99570.84;5054923;28;20007;-64
2021/06/04 08:47:03;;;;;;;;;;;;;;;25.18;100.00;99561.50;5053802;28;20023;-64
2021/06/04 08:49:30;;;;;;;;;;;;;;;25.61;100.00;99574.56;5050832;28;19920;-64
2021/06/04 08:51:58;;;;;;;;;;;;;;;25.89;100.00;99572.22;5050774;28;19924;-64
2021/06/04 08:54:30;;;;;;;;;;;;;;;24.87;100.00;99573.78;5054569;28;19985;-64
2021/06/04 08:57:03;;;;;;;;;;;;;;;24.82;100.00;99566.25;5049049;28;19990;-64
2021/06/04 08:59:28;;;;;;;;;;;;;;;25.80;100.00;99567.72;5051445;28;20007;-64
2021/06/04 09:02:10;;;;;;;;;;;;;;;25.65;100.00;99559.31;5048782;28;20011;-64
2021/06/04 09:04:37;;;;;;;;;;;;;;;25.50;100.00;99566.75;5055176;28;19921;-64
2021/06/04 09:07:08;;;;;;;;;;;;;;;27.10;100.00;99569.34;5030827;28;20496;-64
2021/06/04 09:09:41;;;;;;;;;;;;;;;25.76;100.00;99566.31;5028492;28;19933;-64
2021/06/04 09:12:10;;;;;;;;;;;;;;;25.29;100.00;99561.47;5032584;28;20005;-64
2021/06/04 09:14:36;;;;;;;;;;;;;;;26.96;100.00;99567.16;5024734;28;20023;-64
2021/06/04 09:17:07;;;;;;;;;;;;;;;26.03;100.00;99568.38;5034698;28;20348;-64
2021/06/04 09:19:33;;;;;;;;;;;;;;;24.13;100.00;99562.13;5047398;28;19931;-64
2021/06/04 09:21:58;;;;;;;;;;;;;;;26.70;100.00;99557.09;5050487;28;19929;-64
2021/06/04 09:24:31;;;;;;;;;;;;;;;26.87;100.00;99568.81;5049253;28;19947;-64
2021/06/04 09:26:57;;;;;;;;;;;;;;;25.21;100.00;99556.03;5034103;28;19916;-64
2021/06/04 09:29:27;;;;;;;;;;;;;;;24.29;100.00;99555.59;5035137;28;20439;-64
2021/06/04 09:31:54;;;;;;;;;;;;;;;25.23;100.00;99557.56;5030873;28;19924;-63
2021/06/04 09:34:26;;;;;;;;;;;;;;;24.22;100.00;99560.50;5052396;28;20294;-63
2021/06/04 09:36:55;;;;;;;;;;;;;;;25.36;100.00;99559.16;5055194;28;19925;-64
2021/06/04 09:39:23;;;;;;;;;;;;;;;26.88;100.00;99564.34;5052860;28;19927;-63
2021/06/04 09:41:48;;;;;;;;;;;;;;;25.54;100.00;99567.31;5046374;28;19960;-63
2021/06/04 09:44:17;;;;;;;;;;;;;;;25.93;100.00;99562.22;5045623;28;20005;-64
2021/06/04 09:46:48;;;;;;;;;;;;;;;25.57;100.00;99567.88;5051354;28;20994;-64
2021/06/04 09:49:24;;;;;;;;;;;;;;;26.74;100.00;99568.25;5048818;28;19989;-64
2021/06/04 09:51:56;;;;;;;;;;;;;;;26.14;100.00;99560.38;5026176;28;19925;-64
2021/06/04 09:54:27;;;;;;;;;;;;;;;26.33;100.00;99559.56;5046543;28;19925;-64
2021/06/04 09:57:19;;;;;;;;;;;;;;;26.72;100.00;99564.09;5051215;28;20352;-64
2021/06/04 09:59:45;;;;;;;;;;;;;;;25.96;100.00;99556.69;5028313;28;19931;-64
2021/06/04 10:02:28;;;;;;;;;;;;;;;28.30;100.00;99549.28;5032810;28;19921;-64
2021/06/04 10:05:06;;;;;;;;;;;;;;;28.07;100.00;99562.13;5037773;28;20007;-64
2021/06/04 10:07:32;;;;;;;;;;;;;;;26.69;100.00;99560.75;5020999;28;19932;-64
2021/06/04 10:09:58;;;;;;;;;;;;;;;25.12;100.00;99551.50;5038692;28;20293;-64
2021/06/04 10:12:31;;;;;;;;;;;;;;;25.74;100.00;99555.88;5037124;28;19936;-63
2021/06/04 10:14:59;;;;;;;;;;;;;;;25.46;100.00;99560.88;5031590;28;19921;-64
2021/06/04 10:20:31;;;;;;;;;;;;;;;27.08;100.00;99560.72;5026511;28;19972;-64
2021/06/04 10:23:04;;;;;;;;;;;;;;;28.99;87.66;99545.16;5029364;28;19928;-64
2021/06/04 10:25:41;;;;;;;;;;;;;;;30.17;80.30;99548.13;5019696;28;19928;-64
2021/06/04 10:28:07;;;;;;;;;;;;;;;29.85;78.71;99543.53;5033664;28;19921;-65
2021/06/04 10:30:32;;;;;;;;;;;;;;;27.22;100.00;99540.13;5038222;28;20020;-64
2021/06/04 10:33:30;;;;;;;;;;;;;;;26.70;100.00;99540.44;5033367;28;19927;-64
2021/06/04 10:35:56;;;;;;;;;;;;;;;25.39;100.00;99536.00;5001408;28;19979;-63
2021/06/04 10:38:30;;;;;;;;;;;;;;;28.41;100.00;99527.06;5016581;28;20442;-63
2021/06/04 10:41:00;;;;;;;;;;;;;;;28.81;91.96;99533.72;5031067;28;20381;-63
2021/06/04 10:43:28;;;;;;;;;;;;;;;29.56;83.68;99523.47;5033053;28;20283;-64
2021/06/04 10:46:06;;;;;;;;;;;;;;;28.60;83.76;99526.91;5036466;28;19971;-64
2021/06/04 10:48:50;;;;;;;;;;;;;;;28.49;100.00;99529.81;5032326;28;19936;-64
2021/06/04 10:51:25;;;;;;;;;;;;;;;30.22;80.75;99533.38;5035901;28;20413;-64
2021/06/04 10:53:56;;;;;;;;;;;;;;;29.33;76.11;99529.34;5035149;28;20498;-64
2021/06/04 10:56:27;;;;;;;;;;;;;;;29.59;99.84;99529.28;5029391;28;19921;-63
2021/06/04 10:59:22;;;;;;;;;;;;;;;28.61;95.45;99528.59;5034312;28;20450;-64
2021/06/04 11:02:00;;;;;;;;;;;;;;;29.89;76.43;99535.09;5019040;28;19964;-64
2021/06/04 11:04:29;;;;;;;;;;;;;;;26.63;100.00;99542.78;5032506;28;20014;-64
2021/06/04 11:06:57;;;;;;;;;;;;;;;29.47;100.00;99535.03;5039943;28;19928;-64
2021/06/04 11:09:41;;;;;;;;;;;;;;;29.67;82.46;99535.63;5032224;28;19927;-64
2021/06/04 11:12:29;;;;;;;;;;;;;;;26.97;83.18;99539.72;5032687;28;19943;-63
2021/06/04 11:15:01;;;;;;;;;;;;;;;27.98;96.99;99531.22;5031771;28;19920;-63
2021/06/04 11:17:45;;;;;;;;;;;;;;;26.49;99.49;99524.69;5036145;28;19956;-64
2021/06/04 11:20:18;;;;;;;;;;;;;;;29.47;86.55;99519.97;5033660;28;19912;-64
2021/06/04 11:23:10;;;;;;;;;;;;;;;28.85;90.02;99519.19;5036260;28;19920;-64
2021/06/04 11:25:45;;;;;;;;;;;;;;;27.86;84.35;99506.78;5030466;28;19928;-64
2021/06/04 11:28:29;;;;;;;;;;;;;;;29.34;77.84;99503.63;5034553;28;19921;-64
2021/06/04 11:30:56;;;;;;;;;;;;;;;27.96;83.32;99496.94;5019780;28;19924;-63
2021/06/04 11:33:23;;;;;;;;;;;;;;;29.84;77.46;99494.94;5027783;28;19935;-64
2021/06/04 11:35:53;;;;;;;;;;;;;;;28.10;87.33;99492.97;5026852;28;19920;-64
2021/06/04 11:38:37;;;;;;;;;;;;;;;27.29;100.00;99494.44;5032125;28;19917;-64
2021/06/04 11:41:13;;;;;;;;;;;;;;;29.54;80.55;99494.44;5038417;28;20107;-63
2021/06/04 11:43:39;;;;;;;;;;;;;;;27.88;95.04;99500.34;5035434;28;20023;-64
2021/06/04 11:46:12;;;;;;;;;;;;;;;28.32;74.64;99497.00;5033326;28;19920;-64
2021/06/04 11:48:39;;;;;;;;;;;;;;;28.32;78.98;99491.69;5034275;28;19923;-63
2021/06/04 11:51:19;;;;;;;;;;;;;;;27.78;87.85;99494.25;5016588;28;19925;-64
2021/06/04 11:53:51;;;;;;;;;;;;;;;27.65;99.72;99484.00;5033026;28;19955;-63
2021/06/04 11:56:37;;;;;;;;;;;;;;;27.80;89.92;99480.84;5030618;28;20263;-63
2021/06/04 11:59:03;;;;;;;;;;;;;;;28.71;78.71;99478.97;4987674;28;19929;-63
2021/06/04 12:01:35;;;;;;;;;;;;;;;27.69;89.05;99473.97;5014261;28;19913;-63
2021/06/04 12:04:00;;;;;;;;;;;;;;;28.69;75.65;99467.72;5010488;28;20444;-63
2021/06/04 12:06:28;;;;;;;;;;;;;;;32.18;70.51;99469.34;5032806;28;19928;-60
2021/06/04 12:08:55;;;;;;;;;;;;;;;29.29;87.34;99474.09;5031494;28;19917;-64
2021/06/04 12:11:20;;;;;;;;;;;;;;;28.09;84.17;99470.13;5034818;28;19921;-64
2021/06/04 12:13:49;;;;;;;;;;;;;;;28.02;83.42;99463.78;5024866;28;19921;-64
2021/06/04 12:16:27;;;;;;;;;;;;;;;27.58;89.79;99458.28;5029789;28;19917;-63
2021/06/04 12:19:00;;;;;;;;;;;;;;;27.70;83.65;99451.81;5030821;28;19967;-63
2021/06/04 12:21:37;;;;;;;;;;;;;;;27.19;91.89;99461.06;5029414;28;19913;-63
2021/06/04 12:24:03;;;;;;;;;;;;;;;27.29;78.15;99456.59;5029851;28;19924;-63
2021/06/04 12:26:35;;;;;;;;;;;;;;;27.72;81.01;99458.63;5008755;28;20049;-64
2021/06/04 12:29:00;;;;;;;;;;;;;;;29.05;71.69;99464.13;5013674;28;20394;-64
2021/06/04 12:31:47;;;;;;;;;;;;;;;27.17;89.14;99463.03;5032861;28;20006;-64
2021/06/04 12:34:14;;;;;;;;;;;;;;;27.90;71.33;99461.34;5008372;28;19920;-64
2021/06/04 12:36:39;;;;;;;;;;;;;;;29.54;65.19;99467.09;5032636;28;20338;-64
2021/06/04 12:39:20;;;;;;;;;;;;;;;31.11;71.79;99458.28;5035329;28;19920;-64
2021/06/04 12:41:46;;;;;;;;;;;;;;;30.17;62.66;99463.13;5029279;28;19971;-64
2021/06/04 12:44:12;;;;;;;;;;;;;;;29.81;58.04;99471.34;5014334;28;20600;-64
2021/06/04 12:46:37;;;;;;;;;;;;;;;31.87;60.24;99462.19;5034860;28;19917;-64
2021/06/04 12:49:09;;;;;;;;;;;;;;;33.15;58.70;99461.53;5041738;28;20109;-64